Coleman A. Young Municipal Airport
KDET : rendu visible

Aérodrome :











RETROUVEZ-NOUS SUR...

 
LOGIN :

S'inscrire | Disclaimer

   EN    FR    IT 

 









Légende :    VFR   VFR Marginal   IFR   IFR Intensif   IFR Très Intensif
Visi : 
Plafond : 
>= 8 km
>= 3000ft
5 à 8 km
1000 à 3000 ft
1500m à 5 km
500 à 1000 ft
800 à 1500m
200 à 500 ft
< 800m
< 200 ft
Symboles :   Orages  Brouillard  Fortes neiges  Fortes précipitations  Vent > 20 kt






- Altitude de l'aérodrome : 626 ft
- Code IATA : DET


KDET - Coleman A. Young Municipal

DERNIER METAR :
  • 300253Z 36003KT 10SM BKN046 BKN060 BKN080 18/11 A2998 RMK AO2 SLP150 T01780111 53015

METARs EXPIRÉS :
  • 300153Z 00000KT 10SM FEW060 BKN095 BKN110 18/12 A2996 RMK AO2 SLP144 T01830117
  • 300053Z 00000KT 10SM BKN110 20/11 A2995 RMK AO2 SLP139 T02000106

TAF KDET
Valide du 30 à 00h jusqu'au 31 à 00h UTC


292339Z 3000/3024 29008KT P6SM FEW035 SCT150
FM300400 30007KT P6SM BKN045
FM301000 28010KT P6SM SCT050
FM301600 32012G18KT P6SM BKN050
FIR KZOB / Amérique du Nord



MET'MAP, la Météo Aéronautique d'un coup d'oeil ! - Copyright ORBIFLY Décembre 2007 - Disclaimer

ORBIFLY MET'MAP TEAM :

Programmation & Développement : Alexandra Zaïnal
Sur une idée originale de : Baudouin d'Aumeries
Assistance à la programmation : Marc-Olivier Méhu
Soutien technique & logistique : Manuel Goepfert

Contact : metmap@orbifly.com




SOURCES & CREDITS :

   NOAA       Earth
Advisory